Time;durP1;ratioP1;P1;durP2;ratioP2;P2;SDS_P1;SDS_P2;PMS_P1;PMS_P2;Temp;Humidity;BMP_temperature;BMP_pressure;BME280_temperature;BME280_humidity;BME280_pressure;Samples;Min_cycle;Max_cycle;Signal;HPM_P1;HPM_P2
2022/12/12 00:00:20;;;;;;;39.97;24.15;;;103.10;2227.20;;;;;;4973123;28;20038;-59
2022/12/12 00:02:46;;;;;;;44.17;29.50;;;103.10;2227.20;;;;;;4973204;28;20031;-61
2022/12/12 00:05:15;;;;;;;98.45;53.20;;;103.10;2227.20;;;;;;4973486;28;20093;-59
2022/12/12 00:07:41;;;;;;;31.67;22.33;;;103.30;2227.20;;;;;;4984859;28;20027;-62
2022/12/12 00:10:07;;;;;;;29.45;19.00;;;103.20;2227.20;;;;;;4992548;28;20030;-59
2022/12/12 00:12:33;;;;;;;32.78;21.05;;;103.00;2227.20;;;;;;4992536;28;20093;-61
2022/12/12 00:14:59;;;;;;;43.90;28.08;;;103.00;2227.20;;;;;;4992722;28;20524;-58
2022/12/12 00:17:25;;;;;;;55.83;32.13;;;103.00;2227.20;;;;;;4992369;28;20034;-59
2022/12/12 00:19:51;;;;;;;38.30;24.00;;;103.00;2227.20;;;;;;4982252;28;20082;-61
2022/12/12 00:22:16;;;;;;;29.17;19.25;;;103.20;2227.20;;;;;;4981092;28;20030;-63
2022/12/12 00:24:42;;;;;;;30.35;20.05;;;103.20;2227.20;;;;;;4982431;28;20089;-62
2022/12/12 00:27:08;;;;;;;28.75;19.73;;;103.30;2227.20;;;;;;4980621;28;20437;-63
2022/12/12 00:29:34;;;;;;;29.67;18.83;;;103.30;2227.20;;;;;;4981193;28;20026;-64
2022/12/12 00:32:00;;;;;;;29.92;18.02;;;103.30;2227.20;;;;;;4991522;28;20050;-63
2022/12/12 00:34:26;;;;;;;26.70;18.15;;;103.30;2227.20;;;;;;4992492;28;20040;-63
2022/12/12 00:36:51;;;;;;;32.08;18.25;;;103.30;2227.20;;;;;;4992079;28;20392;-60
2022/12/12 00:39:18;;;;;;;27.63;17.38;;;128.00;2252.80;;;;;;4991772;28;20039;-60
2022/12/12 00:41:45;;;;;;;53.22;37.88;;;103.30;2227.20;;;;;;4992301;28;20195;-59
2022/12/12 00:44:11;;;;;;;82.13;56.28;;;128.00;2252.80;;;;;;4992240;28;20041;-60
2022/12/12 00:46:36;;;;;;;60.03;39.78;;;128.00;2252.80;;;;;;4980561;28;20041;-64
2022/12/12 00:49:02;;;;;;;36.58;21.98;;;128.10;2252.80;;;;;;4981379;28;20045;-62
2022/12/12 00:51:29;;;;;;;43.03;27.33;;;128.00;2252.80;;;;;;4977119;28;20030;-64
2022/12/12 00:53:56;;;;;;;49.63;33.63;;;128.00;2252.80;;;;;;4980612;28;20492;-62
2022/12/12 00:56:23;;;;;;;58.53;34.28;;;128.00;2252.80;;;;;;4981892;28;20058;-65
2022/12/12 00:58:50;;;;;;;38.75;25.70;;;128.10;2252.80;;;;;;4976431;28;20026;-62
2022/12/12 01:01:25;;;;;;;28.50;18.17;;;128.10;2252.80;;;;;;4980738;28;20484;-66
2022/12/12 01:03:51;;;;;;;24.52;17.58;;;128.30;2252.80;;;;;;4978113;28;20118;-64
2022/12/12 01:06:17;;;;;;;31.58;18.85;;;128.20;2252.80;;;;;;4980239;28;20037;-61
2022/12/12 01:08:43;;;;;;;27.73;19.13;;;103.30;2227.20;;;;;;4981756;28;20038;-63
2022/12/12 01:11:11;;;;;;;31.20;18.20;;;128.00;2252.80;;;;;;4979632;28;20039;-64
2022/12/12 01:13:38;;;;;;;26.88;17.17;;;128.00;2252.80;;;;;;4980494;28;20034;-65
2022/12/12 01:16:05;;;;;;;29.15;18.90;;;128.20;2252.80;;;;;;4981348;28;20059;-61
2022/12/12 01:18:31;;;;;;;26.70;16.48;;;128.10;2252.80;;;;;;4980297;28;20027;-59
2022/12/12 01:20:57;;;;;;;26.98;16.48;;;128.10;2252.80;;;;;;4981508;28;20085;-60
2022/12/12 01:23:23;;;;;;;28.40;17.02;;;128.20;2252.80;;;;;;4979842;28;20026;-61
2022/12/12 01:25:49;;;;;;;26.13;17.45;;;128.20;2252.80;;;;;;4980509;28;20489;-63
2022/12/12 01:28:15;;;;;;;26.08;17.70;;;128.20;2252.80;;;;;;4981596;28;20832;-64
2022/12/12 01:30:41;;;;;;;32.08;18.05;;;128.20;2252.80;;;;;;4981155;28;20085;-60
2022/12/12 01:33:06;;;;;;;29.10;18.02;;;128.30;2252.80;;;;;;4980611;28;20019;-60
2022/12/12 01:35:33;;;;;;;28.52;16.45;;;128.10;2252.80;;;;;;4979530;28;20384;-65
2022/12/12 01:37:58;;;;;;;27.88;20.13;;;128.10;2252.80;;;;;;4983031;28;20431;-65
2022/12/12 01:40:27;;;;;;;30.65;17.90;;;128.00;2252.80;;;;;;4981691;28;20018;-62
2022/12/12 01:42:53;;;;;;;30.13;18.20;;;128.10;2252.80;;;;;;4981176;28;20023;-63
2022/12/12 01:46:10;;;;;;;26.70;16.45;;;128.00;2252.80;;;;;;4980073;28;20019;-64
2022/12/12 01:48:43;;;;;;;29.75;18.83;;;103.30;2227.20;;;;;;4947726;28;20042;-65
2022/12/12 01:51:16;;;;;;;30.20;17.88;;;103.00;2227.20;;;;;;4992219;28;20485;-61
2022/12/12 01:53:43;;;;;;;;;;;103.00;2227.20;;;;;;4992898;28;20093;-60
2022/12/12 01:56:12;;;;;;;32.72;19.50;;;103.20;2227.20;;;;;;4992319;28;19917;-60
2022/12/12 01:58:44;;;;;;;31.65;20.38;;;103.30;2227.20;;;;;;4992423;28;20097;-64
2022/12/12 02:01:10;;;;;;;41.65;25.02;;;103.10;2227.20;;;;;;4992224;28;20061;-63
2022/12/12 02:03:37;;;;;;;84.95;48.88;;;103.00;2227.20;;;;;;4992178;28;20050;-61
2022/12/12 02:06:07;;;;;;;60.40;35.00;;;103.00;2227.20;;;;;;4992117;28;20358;-62
2022/12/12 02:08:33;;;;;;;49.30;29.40;;;102.80;2227.20;;;;;;4991595;28;20038;-60
2022/12/12 02:10:59;;;;;;;36.17;20.67;;;102.80;2227.20;;;;;;4991554;28;20035;-63
2022/12/12 02:13:28;;;;;;;32.72;19.35;;;102.80;2227.20;;;;;;4992035;28;20069;-60
2022/12/12 02:16:16;;;;;;;27.30;17.30;;;102.80;2227.20;;;;;;4992176;28;20126;-60
2022/12/12 02:18:47;;;;;;;32.08;18.90;;;102.80;2227.20;;;;;;4992061;28;20026;-59
2022/12/12 02:21:29;;;;;;;27.27;16.67;;;102.80;2227.20;;;;;;4992030;28;20030;-62
2022/12/12 02:24:32;;;;;;;24.25;15.73;;;102.80;2227.20;;;;;;4991975;28;20113;-60
2022/12/12 02:27:03;;;;;;;24.70;15.13;;;102.80;2227.20;;;;;;4991906;28;20453;-60
2022/12/12 02:29:57;;;;;;;25.35;16.55;;;102.60;2227.20;;;;;;4991581;28;20248;-63
2022/12/12 02:32:44;;;;;;;21.23;13.73;;;102.60;2227.20;;;;;;4991923;28;20097;-61
2022/12/12 02:35:31;;;;;;;28.00;17.45;;;102.70;2227.20;;;;;;4991584;28;20041;-60
2022/12/12 02:37:57;;;;;;;21.08;13.05;;;102.50;2227.20;;;;;;4991475;28;20035;-64
2022/12/12 02:40:32;;;;;;;27.58;16.38;;;102.40;2227.20;;;;;;4991669;28;20030;-62
2022/12/12 02:43:01;;;;;;;29.52;15.52;;;102.50;2227.20;;;;;;4991564;28;20026;-60
2022/12/12 02:45:44;;;;;;;33.95;21.33;;;102.40;2227.20;;;;;;4991422;28;20037;-63
2022/12/12 02:48:22;;;;;;;27.85;17.25;;;77.70;2227.20;;;;;;4991619;28;20561;-64
2022/12/12 02:50:51;;;;;;;28.55;18.13;;;102.40;2227.20;;;;;;4991248;28;20373;-59
2022/12/12 02:53:22;;;;;;;31.73;20.58;;;102.50;2227.20;;;;;;4991410;28;20034;-64
2022/12/12 02:55:49;;;;;;;28.05;18.63;;;102.40;2227.20;;;;;;4990720;28;20250;-63
2022/12/12 02:58:18;;;;;;;28.40;17.85;;;77.70;2227.20;;;;;;4991479;28;20393;-60
2022/12/12 03:01:10;;;;;;;25.70;14.75;;;102.40;2227.20;;;;;;4991255;28;20389;-60
2022/12/12 03:10:03;;;;;;;23.52;16.35;;;77.60;2227.20;;;;;;4991070;28;20448;-60
2022/12/12 03:12:44;;;;;;;22.88;14.65;;;77.60;2227.20;;;;;;4978180;28;20066;-65
2022/12/12 03:15:38;;;;;;;29.35;17.80;;;77.70;2227.20;;;;;;4981870;28;20027;-60
2022/12/12 03:18:26;;;;;;;24.92;16.23;;;77.70;2227.20;;;;;;4975067;28;20037;-61
2022/12/12 03:21:10;;;;;;;21.27;11.98;;;77.40;2227.20;;;;;;4971348;28;20022;-60
2022/12/12 03:23:40;;;;;;;21.33;12.70;;;77.50;2227.20;;;;;;4971379;28;20492;-60
2022/12/12 03:26:12;;;;;;;23.13;13.60;;;77.50;2227.20;;;;;;4986960;28;20067;-60
2022/12/12 03:28:46;;;;;;;20.20;13.20;;;77.50;2227.20;;;;;;4990630;28;20451;-61
2022/12/12 03:31:15;;;;;;;23.38;13.88;;;77.60;2227.20;;;;;;4990935;28;20046;-60
2022/12/12 03:33:55;;;;;;;21.77;14.13;;;77.70;2227.20;;;;;;4990790;28;20026;-60
2022/12/12 03:36:28;;;;;;;23.35;14.85;;;77.60;2227.20;;;;;;4990769;28;20464;-64
2022/12/12 03:39:10;;;;;;;17.42;10.20;;;77.60;2227.20;;;;;;4990981;28;20041;-61
2022/12/12 03:41:40;;;;;;;18.20;12.32;;;77.60;2227.20;;;;;;4990574;28;20023;-60
2022/12/12 03:44:13;;;;;;;19.02;11.43;;;77.60;2227.20;;;;;;4990622;28;20036;-60
2022/12/12 03:46:53;;;;;;;17.45;10.70;;;77.60;2227.20;;;;;;4990476;28;20070;-60
2022/12/12 03:49:45;;;;;;;19.48;12.30;;;77.50;2227.20;;;;;;4990488;28;20104;-60
2022/12/12 03:52:31;;;;;;;17.75;10.80;;;77.60;2227.20;;;;;;4911605;29;20072;-63
2022/12/12 03:55:20;;;;;;;18.67;11.13;;;77.60;2227.20;;;;;;4911316;29;20031;-60
2022/12/12 03:57:56;;;;;;;16.20;9.82;;;77.60;2227.20;;;;;;4911264;29;20618;-63
2022/12/12 04:00:21;;;;;;;16.10;10.85;;;77.60;2227.20;;;;;;4911756;29;20114;-60
2022/12/12 04:03:07;;;;;;;18.75;9.52;;;77.50;2227.20;;;;;;4911460;29;20546;-62
2022/12/12 04:08:33;;;;;;;16.08;11.13;;;77.60;2227.20;;;;;;4911671;29;20135;-60
2022/12/12 04:14:28;;;;;;;16.47;10.23;;;77.60;2227.20;;;;;;4911922;29;20431;-60
2022/12/12 04:16:59;;;;;;;19.38;11.32;;;77.40;2227.20;;;;;;4911780;29;20502;-60
2022/12/12 04:26:38;;;;;;;28.77;23.42;;;77.50;2227.20;;;;;;4911525;29;20076;-60
2022/12/12 04:28:31;;;;;;;20.50;11.88;;;77.50;2227.20;;;;;;4929350;28;20034;-61
2022/12/12 04:31:02;;;;;;;19.88;14.15;;;77.50;2227.20;;;;;;4990244;28;20042;-60
2022/12/12 04:33:39;;;;;;;19.13;12.48;;;77.40;2227.20;;;;;;4992147;28;20030;-59
2022/12/12 04:36:07;;;;;;;20.25;10.85;;;77.40;2227.20;;;;;;4993637;28;20449;-60
2022/12/12 04:38:34;;;;;;;16.88;11.60;;;77.50;2227.20;;;;;;4994052;28;20034;-59
2022/12/12 04:41:01;;;;;;;23.25;16.50;;;77.50;2227.20;;;;;;4993786;28;20034;-59
2022/12/12 04:43:34;;;;;;;20.95;13.40;;;77.40;2227.20;;;;;;4993807;28;20595;-59
2022/12/12 04:46:21;;;;;;;24.83;15.18;;;77.30;2227.20;;;;;;4993814;28;20265;-58
2022/12/12 04:48:52;;;;;;;24.27;14.50;;;77.30;2227.20;;;;;;4993408;28;20041;-58
2022/12/12 04:51:29;;;;;;;22.73;14.15;;;77.30;2227.20;;;;;;4993558;28;20038;-58
2022/12/12 04:54:33;;;;;;;18.75;12.63;;;77.30;2227.20;;;;;;4993731;28;20776;-60
2022/12/12 04:57:02;;;;;;;23.98;14.55;;;77.30;2227.20;;;;;;4914036;29;20432;-62
2022/12/12 04:59:28;;;;;;;19.08;12.07;;;77.20;2227.20;;;;;;4914602;29;20075;-60
2022/12/12 05:02:15;;;;;;;18.65;12.27;;;77.40;2227.20;;;;;;4914570;29;20040;-61
2022/12/12 05:05:05;;;;;;;18.27;11.40;;;77.50;2227.20;;;;;;4914496;29;20040;-59
2022/12/12 05:07:38;;;;;;;26.38;14.40;;;77.30;2227.20;;;;;;4914307;29;20068;-59
2022/12/12 05:10:15;;;;;;;22.05;13.40;;;77.20;2227.20;;;;;;4914267;29;20056;-62
2022/12/12 05:12:47;;;;;;;23.15;12.60;;;77.30;2227.20;;;;;;4914462;29;20126;-62
2022/12/12 05:15:14;;;;;;;22.10;12.05;;;77.20;2227.20;;;;;;4914318;29;20044;-62
2022/12/12 05:18:02;;;;;;;21.42;13.73;;;77.20;2227.20;;;;;;4914154;29;20091;-59
2022/12/12 05:20:29;;;;;;;20.08;13.82;;;77.00;2227.20;;;;;;4914247;29;20032;-62
2022/12/12 05:22:54;;;;;;;20.70;13.40;;;77.00;2227.20;;;;;;4914471;29;20483;-59
2022/12/12 05:25:20;;;;;;;21.90;13.57;;;77.10;2227.20;;;;;;4914031;29;20028;-60
2022/12/12 05:27:46;;;;;;;20.50;13.13;;;77.20;2227.20;;;;;;4913896;29;20372;-59
2022/12/12 05:30:12;;;;;;;23.50;15.70;;;77.10;2227.20;;;;;;4913924;29;20028;-61
2022/12/12 05:32:38;;;;;;;24.70;13.68;;;77.00;2227.20;;;;;;4913785;29;20088;-61
2022/12/12 05:35:05;;;;;;;23.35;14.05;;;76.90;2227.20;;;;;;4985759;28;20030;-61
2022/12/12 05:37:30;;;;;;;33.00;23.52;;;76.90;2227.20;;;;;;4992646;28;20030;-61
2022/12/12 05:39:56;;;;;;;26.88;15.98;;;77.00;2227.20;;;;;;4992816;28;20030;-58
2022/12/12 05:42:22;;;;;;;23.25;14.98;;;76.80;2227.20;;;;;;4992693;28;20035;-59
2022/12/12 05:44:47;;;;;;;23.73;14.70;;;52.10;2227.20;;;;;;4991887;28;20076;-58
2022/12/12 05:47:13;;;;;;;23.10;15.38;;;52.10;2227.20;;;;;;4992876;28;20033;-59
2022/12/12 05:49:39;;;;;;;23.85;14.93;;;52.00;2227.20;;;;;;4992306;28;20476;-61
2022/12/12 05:52:04;;;;;;;23.25;13.90;;;52.00;2227.20;;;;;;4992328;28;20117;-58
2022/12/12 05:54:30;;;;;;;24.00;14.95;;;52.00;2227.20;;;;;;4992688;28;20110;-65
2022/12/12 05:56:56;;;;;;;30.65;18.52;;;51.90;2227.20;;;;;;4992092;28;20413;-59
2022/12/12 05:59:21;;;;;;;22.17;14.43;;;51.90;2227.20;;;;;;4975152;28;20027;-63
2022/12/12 06:01:47;;;;;;;28.20;17.00;;;51.90;2227.20;;;;;;4992427;28;20026;-65
2022/12/12 06:04:13;;;;;;;73.40;54.05;;;51.90;2227.20;;;;;;4992176;28;20029;-63
2022/12/12 06:06:40;;;;;;;28.00;16.55;;;51.90;2227.20;;;;;;4985642;28;20118;-59
2022/12/12 06:09:06;;;;;;;24.02;15.55;;;52.10;2227.20;;;;;;4972520;28;20074;-64
2022/12/12 06:11:32;;;;;;;36.78;24.10;;;52.00;2227.20;;;;;;4972518;28;20038;-58
2022/12/12 06:13:58;;;;;;;27.35;16.50;;;76.80;2227.20;;;;;;4972403;28;20093;-60
2022/12/12 06:16:23;;;;;;;26.27;18.00;;;52.10;2227.20;;;;;;4972947;28;20027;-63
2022/12/12 06:18:51;;;;;;;23.92;15.98;;;52.10;2227.20;;;;;;4972682;28;20023;-65
2022/12/12 06:21:17;;;;;;;25.67;15.60;;;76.80;2227.20;;;;;;4972397;28;20378;-60
2022/12/12 06:23:43;;;;;;;26.90;16.92;;;52.10;2227.20;;;;;;4972585;28;20026;-61
2022/12/12 06:26:10;;;;;;;31.95;18.05;;;76.80;2227.20;;;;;;4972025;28;20441;-60
2022/12/12 06:28:37;;;;;;;28.02;16.75;;;52.00;2227.20;;;;;;4972138;28;20381;-59
2022/12/12 06:31:04;;;;;;;120.80;56.60;;;52.00;2227.20;;;;;;4972319;28;20050;-63
2022/12/12 06:33:34;;;;;;;42.00;24.80;;;52.00;2227.20;;;;;;4972079;28;20052;-64
2022/12/12 06:36:12;;;;;;;54.92;34.30;;;51.80;2227.20;;;;;;4972052;28;20042;-59
2022/12/12 06:38:39;;;;;;;33.42;22.95;;;51.90;2227.20;;;;;;4972023;28;20035;-59
2022/12/12 06:41:10;;;;;;;58.10;36.00;;;51.90;2227.20;;;;;;4972184;28;20031;-58
2022/12/12 06:43:36;;;;;;;35.17;21.27;;;51.90;2227.20;;;;;;4972022;28;20027;-59
2022/12/12 06:46:04;;;;;;;58.13;40.17;;;51.80;2227.20;;;;;;4972094;28;20093;-58
2022/12/12 06:48:30;;;;;;;37.97;25.40;;;51.80;2227.20;;;;;;4971894;28;20110;-58
2022/12/12 06:50:57;;;;;;;32.97;23.60;;;51.80;2227.20;;;;;;4971704;28;20035;-61
2022/12/12 06:53:22;;;;;;;26.17;16.45;;;51.70;2227.20;;;;;;4971967;28;20038;-65
2022/12/12 06:55:48;;;;;;;30.30;21.45;;;51.70;2227.20;;;;;;4970806;28;20043;-63
2022/12/12 06:58:14;;;;;;;34.17;21.58;;;51.70;2227.20;;;;;;4971551;28;20031;-58
2022/12/12 07:00:40;;;;;;;24.25;15.43;;;51.90;2227.20;;;;;;4971715;28;20030;-66
2022/12/12 07:03:06;;;;;;;32.55;21.80;;;52.00;2227.20;;;;;;4954398;28;20077;-63
2022/12/12 07:05:32;;;;;;;25.88;17.20;;;51.90;2227.20;;;;;;4971551;28;20402;-65
2022/12/12 07:08:01;;;;;;;25.48;17.75;;;51.80;2227.20;;;;;;4981870;28;20062;-64
2022/12/12 07:10:30;;;;;;;29.60;19.30;;;51.80;2227.20;;;;;;4986260;28;20459;-64
2022/12/12 07:12:56;;;;;;;29.63;19.50;;;51.70;2227.20;;;;;;4985190;28;20034;-66
2022/12/12 07:15:22;;;;;;;34.63;20.38;;;51.80;2227.20;;;;;;4977578;28;20031;-67
2022/12/12 07:17:52;;;;;;;51.33;33.72;;;52.00;2227.20;;;;;;4977334;28;20037;-66
2022/12/12 07:20:18;;;;;;;32.20;20.27;;;52.10;2227.20;;;;;;4982577;28;20054;-66
2022/12/12 07:22:44;;;;;;;54.47;32.85;;;52.10;2227.20;;;;;;4973569;28;20497;-66
2022/12/12 07:25:10;;;;;;;35.08;22.50;;;52.10;2227.20;;;;;;4982253;28;20040;-64
2022/12/12 07:27:36;;;;;;;34.42;22.85;;;76.90;2227.20;;;;;;4990465;28;20038;-59
2022/12/12 07:30:01;;;;;;;39.75;27.88;;;52.10;2227.20;;;;;;4990939;28;20026;-60
2022/12/12 07:32:27;;;;;;;32.55;19.45;;;76.90;2227.20;;;;;;4990983;28;20073;-58
2022/12/12 07:34:53;;;;;;;29.45;17.98;;;76.90;2227.20;;;;;;4990793;28;20027;-58
2022/12/12 07:37:18;;;;;;;31.63;20.20;;;77.00;2227.20;;;;;;4990387;28;20408;-58
2022/12/12 07:39:44;;;;;;;25.60;16.02;;;76.80;2227.20;;;;;;4990864;28;20425;-58
2022/12/12 07:42:10;;;;;;;28.30;17.73;;;76.80;2227.20;;;;;;4990629;28;20126;-58
2022/12/12 07:44:35;;;;;;;23.23;15.98;;;76.80;2227.20;;;;;;4990466;28;20035;-59
2022/12/12 07:47:01;;;;;;;20.90;13.77;;;76.80;2227.20;;;;;;4990711;28;20034;-54
2022/12/12 07:49:28;;;;;;;28.55;17.25;;;76.90;2227.20;;;;;;4990727;28;20073;-54
2022/12/12 07:51:54;;;;;;;26.95;16.95;;;52.10;2227.20;;;;;;4990610;28;20038;-59
2022/12/12 07:54:20;;;;;;;23.25;15.85;;;76.90;2227.20;;;;;;4989273;28;20042;-60
2022/12/12 07:56:45;;;;;;;23.98;14.55;;;77.00;2227.20;;;;;;4975719;28;20051;-58
2022/12/12 07:59:11;;;;;;;27.52;18.80;;;76.90;2227.20;;;;;;4971081;28;20073;-59
2022/12/12 08:01:37;;;;;;;23.08;14.32;;;76.90;2227.20;;;;;;4970837;28;20035;-56
2022/12/12 08:04:04;;;;;;;26.30;15.73;;;77.00;2227.20;;;;;;4970891;28;20027;-53
2022/12/12 08:06:30;;;;;;;22.77;13.15;;;77.10;2227.20;;;;;;4970766;28;20039;-60
2022/12/12 08:08:56;;;;;;;23.33;15.35;;;77.10;2227.20;;;;;;4973823;28;20045;-54
2022/12/12 08:11:23;;;;;;;31.38;18.13;;;77.00;2227.20;;;;;;4974863;28;20113;-54
2022/12/12 08:13:50;;;;;;;23.45;15.15;;;77.20;2227.20;;;;;;4974628;28;20030;-59
2022/12/12 08:16:25;;;;;;;26.25;14.30;;;77.20;2227.20;;;;;;4974522;28;20030;-54
2022/12/12 08:18:53;;;;;;;23.08;14.40;;;77.20;2227.20;;;;;;4974868;28;20034;-55
2022/12/12 08:21:19;;;;;;;23.92;13.90;;;77.20;2227.20;;;;;;4974518;28;20037;-54
2022/12/12 08:23:45;;;;;;;25.88;14.52;;;77.30;2227.20;;;;;;4974814;28;20026;-53
2022/12/12 08:26:13;;;;;;;24.83;14.85;;;77.30;2227.20;;;;;;4974542;28;20038;-59
2022/12/12 08:28:48;;;;;;;19.83;13.45;;;77.40;2227.20;;;;;;4974228;28;20023;-53
2022/12/12 08:31:15;;;;;;;25.20;14.35;;;77.40;2227.20;;;;;;4974445;28;20042;-54
2022/12/12 08:33:41;;;;;;;23.85;14.35;;;77.40;2227.20;;;;;;4974449;28;20034;-56
2022/12/12 08:36:14;;;;;;;22.77;13.85;;;77.60;2227.20;;;;;;4974121;28;20038;-54
2022/12/12 08:38:40;;;;;;;17.38;10.65;;;77.60;2227.20;;;;;;4974270;28;20066;-53
2022/12/12 08:41:06;;;;;;;34.22;17.05;;;77.70;2227.20;;;;;;4974035;28;20073;-53
2022/12/12 08:43:32;;;;;;;22.63;13.13;;;102.40;2227.20;;;;;;4974420;28;20030;-58
2022/12/12 08:46:02;;;;;;;21.58;13.23;;;102.40;2227.20;;;;;;4974179;28;20027;-55
2022/12/12 08:48:29;;;;;;;22.80;12.70;;;77.70;2227.20;;;;;;4974251;28;20485;-58
2022/12/12 08:50:55;;;;;;;20.10;12.55;;;77.70;2227.20;;;;;;4974249;28;20043;-53
2022/12/12 08:53:22;;;;;;;24.63;13.45;;;77.70;2227.20;;;;;;4974212;28;20031;-55
2022/12/12 08:55:48;;;;;;;35.60;24.38;;;77.70;2227.20;;;;;;4973639;28;20055;-55
2022/12/12 08:58:13;;;;;;;19.77;14.25;;;77.70;2227.20;;;;;;4971177;28;20026;-54
2022/12/12 09:00:40;;;;;;;21.27;16.45;;;77.60;2227.20;;;;;;4972369;28;20034;-59
2022/12/12 09:03:07;;;;;;;32.65;19.48;;;77.70;2227.20;;;;;;4972284;28;20046;-54
2022/12/12 09:05:33;;;;;;;22.80;14.48;;;102.40;2227.20;;;;;;4972451;28;20045;-53
2022/12/12 09:07:59;;;;;;;21.20;14.45;;;77.70;2227.20;;;;;;4972238;28;20039;-55
2022/12/12 09:10:26;;;;;;;20.20;15.45;;;77.70;2227.20;;;;;;4971836;28;20038;-54
2022/12/12 09:12:52;;;;;;;18.75;13.43;;;102.50;2227.20;;;;;;4972148;28;20524;-55
2022/12/12 09:15:18;;;;;;;19.73;11.70;;;102.40;2227.20;;;;;;4972198;28;20065;-54
2022/12/12 09:17:43;;;;;;;18.35;13.32;;;102.40;2227.20;;;;;;4972389;28;20462;-54
2022/12/12 09:20:10;;;;;;;18.98;14.50;;;102.40;2227.20;;;;;;4971057;28;20426;-54
2022/12/12 09:22:35;;;;;;;20.92;13.65;;;77.70;2227.20;;;;;;4972326;28;20449;-56
2022/12/12 09:25:01;;;;;;;22.73;15.20;;;77.60;2227.20;;;;;;4971735;28;20085;-54
2022/12/12 09:27:27;;;;;;;23.05;15.88;;;77.70;2227.20;;;;;;4971704;28;20583;-54
2022/12/12 09:29:53;;;;;;;21.45;15.82;;;77.70;2227.20;;;;;;4971973;28;20030;-54
2022/12/12 09:32:19;;;;;;;21.02;14.82;;;77.70;2227.20;;;;;;4971745;28;20038;-57
2022/12/12 09:34:45;;;;;;;20.85;14.07;;;77.70;2227.20;;;;;;4971865;28;20195;-54
2022/12/12 09:37:10;;;;;;;22.13;14.60;;;77.50;2227.20;;;;;;4971393;28;20129;-54
2022/12/12 09:39:36;;;;;;;21.33;13.00;;;77.50;2227.20;;;;;;4971595;28;20023;-54
2022/12/12 09:42:25;;;;;;;16.40;10.82;;;77.70;2227.20;;;;;;4970968;28;20034;-53
2022/12/12 09:44:56;;;;;;;22.52;12.07;;;77.70;2227.20;;;;;;4973643;28;20031;-53
2022/12/12 09:47:36;;;;;;;18.60;13.10;;;77.70;2227.20;;;;;;4973456;28;20102;-53
2022/12/12 09:50:32;;;;;;;21.42;13.00;;;77.50;2227.20;;;;;;4973181;28;20549;-57
2022/12/12 09:53:05;;;;;;;18.40;12.57;;;77.70;2227.20;;;;;;4973055;28;20035;-55
2022/12/12 09:55:41;;;;;;;17.88;12.40;;;77.70;2227.20;;;;;;4972947;28;20058;-53
2022/12/12 09:58:32;;;;;;;26.08;17.15;;;77.60;2227.20;;;;;;4972770;28;20034;-59
2022/12/12 10:00:58;;;;;;;28.55;16.77;;;102.40;2227.20;;;;;;4972813;28;20110;-56
2022/12/12 10:03:32;;;;;;;21.38;12.68;;;77.70;2227.20;;;;;;4972965;28;20069;-56
2022/12/12 10:06:10;;;;;;;18.35;14.32;;;102.40;2227.20;;;;;;4972628;28;20466;-58
2022/12/12 10:08:52;;;;;;;18.52;12.23;;;77.70;2227.20;;;;;;4972449;28;20039;-54
2022/12/12 10:14:12;;;;;;;18.83;11.35;;;102.40;2227.20;;;;;;4972992;28;20034;-58
2022/12/12 10:16:38;;;;;;;20.52;12.13;;;77.60;2227.20;;;;;;4972462;28;20037;-56
2022/12/12 10:19:20;;;;;;;20.33;15.07;;;77.70;2227.20;;;;;;4972739;28;20015;-54
2022/12/12 10:21:50;;;;;;;20.70;12.82;;;77.70;2227.20;;;;;;4972297;28;20033;-54
2022/12/12 10:24:38;;;;;;;21.42;12.90;;;102.40;2227.20;;;;;;4972313;28;20026;-55
2022/12/12 10:27:13;;;;;;;20.73;12.32;;;102.60;2227.20;;;;;;4972193;28;20113;-59
2022/12/12 10:29:44;;;;;;;20.25;14.27;;;102.70;2227.20;;;;;;4972253;28;20049;-53
2022/12/12 10:32:10;;;;;;;22.60;14.73;;;102.70;2227.20;;;;;;4972133;28;20493;-55
2022/12/12 10:34:54;;;;;;;16.90;11.55;;;102.80;2227.20;;;;;;4971809;28;20078;-54
2022/12/12 10:37:20;;;;;;;17.50;12.88;;;102.80;2227.20;;;;;;4971911;28;20033;-57
2022/12/12 10:39:56;;;;;;;21.67;10.82;;;102.90;2227.20;;;;;;4972116;28;20540;-54
2022/12/12 10:42:34;;;;;;;19.98;11.48;;;102.80;2227.20;;;;;;4971992;28;20027;-54
2022/12/12 10:45:30;;;;;;;23.40;13.45;;;102.90;2227.20;;;;;;4971878;28;20470;-54
2022/12/12 10:47:56;;;;;;;24.52;13.32;;;102.80;2227.20;;;;;;4971959;28;20023;-54
2022/12/12 10:50:33;;;;;;;21.60;13.80;;;102.70;2227.20;;;;;;4971975;28;20038;-54
2022/12/12 10:53:04;;;;;;;20.95;12.88;;;102.50;2227.20;;;;;;4971819;28;20466;-56
2022/12/12 10:55:52;;;;;;;35.72;24.73;;;102.50;2227.20;;;;;;4971686;28;20028;-59
2022/12/12 10:58:18;;;;;;;36.40;24.08;;;102.50;2227.20;;;;;;4971760;28;20026;-53
2022/12/12 11:00:46;;;;;;;27.95;17.17;;;102.60;2227.20;;;;;;4971774;28;20025;-58
2022/12/12 11:03:31;;;;;;;24.23;16.63;;;102.60;2227.20;;;;;;4971866;28;20054;-54
2022/12/12 11:05:57;;;;;;;43.38;27.60;;;102.50;2227.20;;;;;;4971450;28;20023;-54
2022/12/12 11:08:32;;;;;;;30.35;18.77;;;102.40;2227.20;;;;;;4971804;28;20089;-54
2022/12/12 11:11:18;;;;;;;31.70;19.58;;;77.70;2227.20;;;;;;4971703;28;20027;-58
2022/12/12 11:14:19;;;;;;;27.30;22.02;;;77.60;2227.20;;;;;;4971672;28;20474;-58
2022/12/12 11:16:45;;;;;;;27.20;18.77;;;102.40;2227.20;;;;;;4971541;28;20034;-59
2022/12/12 11:19:16;;;;;;;35.85;23.67;;;102.50;2227.20;;;;;;4971659;28;20030;-53
2022/12/12 11:21:42;;;;;;;47.47;29.60;;;102.60;2227.20;;;;;;4971689;28;20023;-54
2022/12/12 11:24:14;;;;;;;42.85;25.20;;;102.60;2227.20;;;;;;4971355;28;20452;-59
2022/12/12 11:26:45;;;;;;;38.00;24.02;;;102.70;2227.20;;;;;;4971370;28;20355;-59
2022/12/12 11:29:29;;;;;;;43.17;25.25;;;102.50;2227.20;;;;;;4971418;28;20026;-56
2022/12/12 11:31:56;;;;;;;42.20;24.67;;;102.70;2227.20;;;;;;4971639;28;20039;-58
2022/12/12 11:34:25;;;;;;;49.55;31.00;;;102.80;2227.20;;;;;;4971292;28;20031;-55
2022/12/12 11:36:51;;;;;;;31.55;20.83;;;102.70;2227.20;;;;;;4971043;28;20039;-55
2022/12/12 11:39:43;;;;;;;38.00;22.80;;;102.80;2227.20;;;;;;4971149;28;20027;-57
2022/12/12 11:42:14;;;;;;;29.90;17.17;;;102.60;2227.20;;;;;;4970831;28;20034;-59
2022/12/12 11:44:42;;;;;;;32.08;22.90;;;102.70;2227.20;;;;;;4970977;28;20493;-54
2022/12/12 11:47:15;;;;;;;34.70;27.15;;;102.80;2227.20;;;;;;4971030;28;20042;-53
2022/12/12 11:49:47;;;;;;;;;;;102.80;2227.20;;;;;;4971625;28;20061;-54
2022/12/12 11:52:23;;;;;;;23.77;14.25;;;102.80;2227.20;;;;;;4971013;28;19914;-54
2022/12/12 11:54:49;;;;;;;25.50;16.20;;;102.80;2227.20;;;;;;4970828;28;20023;-54
2022/12/12 11:57:39;;;;;;;23.30;15.57;;;102.60;2227.20;;;;;;4971030;28;20113;-54
2022/12/12 12:00:21;;;;;;;21.27;13.85;;;102.60;2227.20;;;;;;4971099;28;20027;-59
2022/12/12 12:03:15;;;;;;;21.27;14.23;;;102.50;2227.20;;;;;;4970882;28;20022;-54
2022/12/12 12:06:16;;;;;;;24.27;16.48;;;102.70;2227.20;;;;;;4971150;28;20043;-54
2022/12/12 12:09:12;;;;;;;24.40;16.75;;;102.70;2227.20;;;;;;4971063;28;20038;-55
2022/12/12 12:12:01;;;;;;;29.75;19.13;;;102.60;2227.20;;;;;;4970415;28;20481;-54
2022/12/12 12:15:01;;;;;;;36.13;21.33;;;102.70;2227.20;;;;;;4970488;28;20371;-54
2022/12/12 12:18:08;;;;;;;35.92;22.92;;;102.60;2227.20;;;;;;4892470;29;20040;-54
2022/12/12 12:20:52;;;;;;;45.70;29.92;;;102.60;2227.20;;;;;;4892567;29;20025;-54
2022/12/12 12:23:58;;;;;;;18.27;13.38;;;102.50;2227.20;;;;;;4892496;29;20500;-54
2022/12/12 12:26:50;;;;;;;26.33;18.10;;;77.70;2227.20;;;;;;4892590;29;20152;-55
2022/12/12 12:29:16;;;;;;;25.77;18.33;;;77.70;2227.20;;;;;;4890410;29;20100;-58
2022/12/12 12:32:09;;;;;;;35.88;24.25;;;102.40;2227.20;;;;;;4890653;29;20044;-57
2022/12/12 12:35:17;;;;;;;35.60;21.17;;;102.50;2227.20;;;;;;4890736;29;20036;-54
2022/12/12 12:37:49;;;;;;;32.08;19.30;;;102.70;2227.20;;;;;;4890610;29;20040;-55
2022/12/12 12:40:30;;;;;;;37.97;25.35;;;102.70;2227.20;;;;;;4890729;29;20048;-54
2022/12/12 12:43:14;;;;;;;31.27;20.92;;;102.70;2227.20;;;;;;4889958;29;20040;-54
2022/12/12 12:45:56;;;;;;;23.95;15.23;;;102.60;2227.20;;;;;;4890420;29;20420;-58
2022/12/12 12:48:29;;;;;;;29.95;20.42;;;77.70;2227.20;;;;;;4890621;29;20523;-58